Time;durP1;ratioP1;P1;durP2;ratioP2;P2;SDS_P1;SDS_P2;PMS_P1;PMS_P2;Temp;Humidity;BMP_temperature;BMP_pressure;BME280_temperature;BME280_humidity;BME280_pressure;Samples;Min_cycle;Max_cycle;Signal;HPM_P1;HPM_P2
2022/10/27 00:00:00;;;;;;;4.57;0.82;;;;;;;-146.48;100.00;-16317.56;5301876;28;20039;-71
2022/10/27 00:02:31;;;;;;;4.40;0.70;;;;;;;-146.48;100.00;-16317.56;5301784;28;20028;-71
2022/10/27 00:05:02;;;;;;;3.50;0.80;;;;;;;-146.48;100.00;-16317.56;5302734;28;20034;-71
2022/10/27 00:07:37;;;;;;;6.35;0.70;;;;;;;-146.48;100.00;-16317.56;5301571;28;20017;-71
2022/10/27 00:10:08;;;;;;;4.95;0.70;;;;;;;-146.48;100.00;-16317.56;5302703;28;20035;-71
2022/10/27 00:12:40;;;;;;;2.58;0.70;;;;;;;-146.48;100.00;-16317.56;5301954;28;20048;-71
2022/10/27 00:15:12;;;;;;;3.90;0.65;;;;;;;-146.48;100.00;-16317.56;5301693;28;20054;-71
2022/10/27 00:17:43;;;;;;;5.20;0.60;;;;;;;-146.48;100.00;-16317.56;5302011;28;20020;-71
2022/10/27 00:20:15;;;;;;;3.78;0.75;;;;;;;-146.48;100.00;-16317.56;5302613;28;20022;-71
2022/10/27 00:22:46;;;;;;;2.97;0.70;;;;;;;-146.48;100.00;-16317.56;5301034;28;20042;-71
2022/10/27 00:25:17;;;;;;;4.28;0.70;;;;;;;-146.48;100.00;-16317.56;5302373;28;20027;-71
2022/10/27 00:27:48;;;;;;;4.07;0.70;;;;;;;-146.48;100.00;-16317.56;5301521;28;20036;-70
2022/10/27 00:30:20;;;;;;;2.75;0.60;;;;;;;-146.48;100.00;-16317.56;5301873;28;20044;-70
2022/10/27 00:32:52;;;;;;;4.53;0.70;;;;;;;-146.48;100.00;-16317.56;5301873;28;20020;-71
2022/10/27 00:35:23;;;;;;;2.95;0.60;;;;;;;-146.48;100.00;-16317.56;5301730;28;20086;-70
2022/10/27 00:37:55;;;;;;;3.33;0.55;;;;;;;-146.48;100.00;-16317.56;5301962;28;20028;-70
2022/10/27 00:40:26;;;;;;;2.00;0.60;;;;;;;-146.48;100.00;-16317.56;5302127;28;20029;-70
2022/10/27 00:42:57;;;;;;;7.40;0.70;;;;;;;-146.48;100.00;-16317.56;5301180;28;20024;-70
2022/10/27 00:45:29;;;;;;;3.53;0.60;;;;;;;-146.48;100.00;-16317.56;5301646;28;20024;-73
2022/10/27 00:48:00;;;;;;;2.55;0.70;;;;;;;-146.48;100.00;-16317.56;5302266;28;20028;-70
2022/10/27 00:50:32;;;;;;;4.60;0.50;;;;;;;-146.48;100.00;-16317.56;5300724;28;20032;-70
2022/10/27 00:53:03;;;;;;;3.28;0.65;;;;;;;-146.48;100.00;-16317.56;5302115;28;20123;-70
2022/10/27 00:55:37;;;;;;;4.15;1.02;;;;;;;-146.48;100.00;-16317.56;5304455;28;20032;-70
2022/10/27 00:58:13;;;;;;;3.75;0.85;;;;;;;-146.48;100.00;-16317.56;5305289;28;20024;-71
2022/10/27 01:00:44;;;;;;;4.72;0.60;;;;;;;-146.48;100.00;-16317.56;5305424;28;20031;-71
2022/10/27 01:03:21;;;;;;;5.32;0.82;;;;;;;-146.48;100.00;-16317.56;5305102;28;20024;-70
2022/10/27 01:05:55;;;;;;;3.63;0.60;;;;;;;-146.48;100.00;-16317.56;5305014;28;20028;-70
2022/10/27 01:08:27;;;;;;;3.65;0.52;;;;;;;-146.48;100.00;-16317.56;5305586;28;20086;-70
2022/10/27 01:10:59;;;;;;;4.13;0.90;;;;;;;-146.48;100.00;-16317.56;5305159;28;20055;-70
2022/10/27 01:13:30;;;;;;;4.18;0.60;;;;;;;-146.48;100.00;-16317.56;5305634;28;20098;-70
2022/10/27 01:16:24;;;;;;;3.17;0.60;;;;;;;-146.48;100.00;-16317.56;5306019;28;20079;-70
2022/10/27 01:19:21;;;;;;;3.17;0.60;;;;;;;-146.48;100.00;-16317.56;5304796;28;20113;-70
2022/10/27 01:22:27;;;;;;;2.63;0.50;;;;;;;-146.48;100.00;-16317.56;5305450;28;20146;-70
2022/10/27 01:25:13;;;;;;;4.88;0.70;;;;;;;-146.48;100.00;-16317.56;5291178;28;20036;-70
2022/10/27 01:28:07;;;;;;;5.65;0.63;;;;;;;-146.48;100.00;-16317.56;5305087;28;20551;-70
2022/10/27 01:31:06;;;;;;;3.47;0.60;;;;;;;-146.48;100.00;-16317.56;5304739;28;20091;-70
2022/10/27 01:33:47;;;;;;;3.95;0.70;;;;;;;-146.48;100.00;-16317.56;5304516;28;20043;-70
2022/10/27 01:36:29;;;;;;;7.07;0.88;;;;;;;-146.48;100.00;-16317.56;5305477;28;20506;-71
2022/10/27 01:39:23;;;;;;;2.78;0.70;;;;;;;-146.48;100.00;60459.00;5304772;28;20052;-70
2022/10/27 01:42:00;;;;;;;3.53;1.00;;;;;;;-146.48;100.00;60459.00;5304923;28;20060;-71
2022/10/27 01:44:37;;;;;;;3.75;0.63;;;;;;;-146.48;100.00;60459.00;5304617;28;20463;-71
2022/10/27 01:47:10;;;;;;;2.50;0.60;;;;;;;-146.48;100.00;60459.00;5304223;28;20032;-71
2022/10/27 01:49:42;;;;;;;5.55;0.90;;;;;;;-146.48;100.00;60459.00;5304536;28;20031;-71
2022/10/27 01:52:48;;;;;;;3.95;0.63;;;;;;;-146.48;100.00;60459.00;5304727;28;20471;-72
2022/10/27 01:55:25;;;;;;;4.50;0.68;;;;;;;-146.48;100.00;60459.00;5305333;28;20417;-71
2022/10/27 01:58:17;;;;;;;4.72;0.70;;;;;;;-146.48;100.00;60459.00;5304661;28;20027;-70
2022/10/27 02:01:07;;;;;;;3.53;1.05;;;;;;;-146.48;100.00;60459.00;5303687;28;20178;-71
2022/10/27 02:03:57;;;;;;;2.83;0.63;;;;;;;-146.48;100.00;60459.00;5304415;28;20036;-71
2022/10/27 02:06:44;;;;;;;4.22;0.68;;;;;;;-146.48;100.00;60459.00;5303472;28;20434;-71
2022/10/27 02:09:19;;;;;;;4.85;1.00;;;;;;;-146.48;100.00;60459.00;5304767;28;20024;-71
2022/10/27 02:11:53;;;;;;;5.20;0.80;;;;;;;-146.48;100.00;60459.00;5304319;28;20032;-70
2022/10/27 02:14:24;;;;;;;2.50;0.98;;;;;;;-146.48;100.00;60459.00;5303654;28;20074;-71
2022/10/27 02:16:57;;;;;;;4.60;0.90;;;;;;;-146.48;100.00;60459.00;5304581;28;20409;-71
2022/10/27 02:19:34;;;;;;;4.63;1.08;;;;;;;-146.48;100.00;60459.00;5304151;28;20091;-71
2022/10/27 02:22:06;;;;;;;3.97;0.70;;;;;;;-146.48;100.00;60459.00;5303617;28;20055;-70
2022/10/27 02:24:37;;;;;;;3.03;0.60;;;;;;;-146.48;100.00;60459.00;5304053;28;20063;-71
2022/10/27 02:27:17;;;;;;;4.28;0.60;;;;;;;-146.48;100.00;60459.00;5304306;28;20032;-70
2022/10/27 02:29:50;;;;;;;3.17;0.93;;;;;;;-146.48;100.00;60459.00;5303148;28;20051;-71
2022/10/27 02:32:23;;;;;;;1.75;0.60;;;;;;;-146.48;100.00;60459.00;5304323;28;20016;-71
2022/10/27 02:34:55;;;;;;;3.25;0.60;;;;;;;-146.48;100.00;60459.00;5303086;28;20031;-71
2022/10/27 02:37:36;;;;;;;3.35;0.63;;;;;;;-146.48;100.00;60459.00;5303888;28;20367;-72
2022/10/27 02:40:08;;;;;;;3.13;0.50;;;;;;;-146.48;100.00;60459.00;5304306;28;20028;-71
2022/10/27 02:42:39;;;;;;;3.75;0.70;;;;;;;-146.48;100.00;60459.00;5302781;28;20040;-71
2022/10/27 02:45:11;;;;;;;3.63;0.70;;;;;;;-146.48;100.00;60459.00;5304274;28;20087;-71
2022/10/27 02:47:42;;;;;;;2.97;0.80;;;;;;;-146.48;100.00;60459.00;5303540;28;20034;-72
2022/10/27 02:50:13;;;;;;;4.90;0.60;;;;;;;-146.48;100.00;60459.00;5303565;28;20032;-72
2022/10/27 02:52:44;;;;;;;2.10;0.70;;;;;;;-146.48;100.00;60459.00;5303308;28;20035;-71
2022/10/27 02:55:16;;;;;;;3.65;0.80;;;;;;;-146.48;100.00;60459.00;5303841;28;20496;-71
2022/10/27 02:57:47;;;;;;;3.70;0.77;;;;;;;-146.48;100.00;60459.00;5302681;28;20062;-71
2022/10/27 03:00:18;;;;;;;3.13;0.88;;;;;;;-146.48;100.00;60459.00;5303971;28;20432;-71
2022/10/27 03:02:50;;;;;;;3.15;0.60;;;;;;;-146.48;100.00;60459.00;5302464;28;20343;-71
2022/10/27 03:05:21;;;;;;;3.72;0.68;;;;;;;-146.48;100.00;60459.00;5303708;28;20100;-70
2022/10/27 03:07:52;;;;;;;4.05;0.80;;;;;;;-146.48;100.00;60459.00;5303142;28;20024;-70
2022/10/27 03:10:23;;;;;;;4.00;0.80;;;;;;;-146.48;100.00;60459.00;5302768;28;20042;-71
2022/10/27 03:12:55;;;;;;;3.78;0.95;;;;;;;-146.48;100.00;60459.00;5303245;28;20039;-70
2022/10/27 03:15:26;;;;;;;2.78;0.70;;;;;;;-146.48;100.00;60459.00;5302999;28;20475;-71
2022/10/27 03:17:57;;;;;;;5.35;0.90;;;;;;;-146.48;100.00;60459.00;5302047;28;20475;-70
2022/10/27 03:20:29;;;;;;;2.60;0.80;;;;;;;-146.48;100.00;60459.00;5302872;28;20069;-70
2022/10/27 03:23:00;;;;;;;2.78;0.73;;;;;;;-146.48;100.00;60459.00;5303489;28;20024;-70
2022/10/27 03:25:31;;;;;;;5.22;0.77;;;;;;;-146.48;100.00;60459.00;5301862;28;20028;-70
2022/10/27 03:28:02;;;;;;;3.17;0.70;;;;;;;-146.48;100.00;60459.00;5303345;28;20377;-72
2022/10/27 03:30:34;;;;;;;5.75;1.00;;;;;;;-146.48;100.00;60459.00;5302433;28;20093;-70
2022/10/27 03:33:05;;;;;;;3.60;0.60;;;;;;;-146.48;100.00;60459.00;5302622;28;20024;-70
2022/10/27 03:35:36;;;;;;;5.07;0.90;;;;;;;-146.48;100.00;60459.00;5302825;28;20036;-70
2022/10/27 03:38:08;;;;;;;5.80;1.42;;;;;;;-146.48;100.00;60459.00;5302401;28;20146;-70
2022/10/27 03:40:39;;;;;;;4.18;0.70;;;;;;;-146.48;100.00;60459.00;5302530;28;20016;-70
2022/10/27 03:43:10;;;;;;;2.78;0.70;;;;;;;-146.48;100.00;60459.00;5302816;28;20031;-71
2022/10/27 03:45:42;;;;;;;5.22;0.80;;;;;;;-146.48;100.00;60459.00;5301772;28;20527;-70
2022/10/27 03:48:13;;;;;;;4.40;0.60;;;;;;;-146.48;100.00;60459.00;5302962;28;20112;-70
2022/10/27 03:50:46;;;;;;;5.20;0.70;;;;;;;-146.48;100.00;60459.00;5302346;28;20024;-70
2022/10/27 03:53:18;;;;;;;2.75;0.60;;;;;;;-146.48;100.00;60459.00;5301883;28;20116;-71
2022/10/27 03:55:50;;;;;;;7.30;0.60;;;;;;;-146.48;100.00;60459.00;5302149;28;20380;-71
2022/10/27 03:58:21;;;;;;;1.85;0.60;;;;;;;-146.48;100.00;60459.00;5303018;28;20024;-71
2022/10/27 04:00:53;;;;;;;2.50;0.60;;;;;;;-146.48;100.00;60459.00;5301549;28;20024;-71
2022/10/27 04:03:24;;;;;;;4.03;0.77;;;;;;;-146.48;100.00;60459.00;5302049;28;20533;-72
2022/10/27 04:05:55;;;;;;;3.30;0.60;;;;;;;-146.48;100.00;60459.00;5301399;28;20486;-70
2022/10/27 04:08:26;;;;;;;5.80;1.30;;;;;;;-146.48;100.00;60459.00;5302454;28;20480;-71
2022/10/27 04:10:58;;;;;;;3.03;0.77;;;;;;;-146.48;100.00;60459.00;5302926;28;20024;-71
2022/10/27 04:13:29;;;;;;;3.13;0.70;;;;;;;-146.48;100.00;60459.00;5301415;28;20031;-71
2022/10/27 04:16:01;;;;;;;4.63;0.57;;;;;;;-146.48;100.00;60459.00;5302637;28;20077;-71
2022/10/27 04:18:32;;;;;;;3.92;0.70;;;;;;;-146.48;100.00;60459.00;5301697;28;20028;-71
2022/10/27 04:21:05;;;;;;;3.75;0.50;;;;;;;-146.48;100.00;60459.00;5301847;28;20356;-71
2022/10/27 04:23:36;;;;;;;5.72;0.50;;;;;;;-146.48;100.00;60459.00;5301726;28;20024;-71
2022/10/27 04:26:08;;;;;;;2.92;0.80;;;;;;;-146.48;100.00;60459.00;5302640;28;20027;-71
2022/10/27 04:28:39;;;;;;;3.13;0.60;;;;;;;-146.48;100.00;60459.00;5300936;28;20047;-71
2022/10/27 04:31:11;;;;;;;3.33;0.60;;;;;;;-146.48;100.00;60459.00;5306537;28;20020;-71
2022/10/27 04:33:42;;;;;;;4.63;0.57;;;;;;;-146.48;100.00;60459.00;5306149;28;20475;-71
2022/10/27 04:36:13;;;;;;;2.88;0.80;;;;;;;-146.48;100.00;60459.00;5305930;28;20020;-70
2022/10/27 04:38:48;;;;;;;4.20;0.60;;;;;;;-146.48;100.00;60459.00;5306081;28;20024;-71
2022/10/27 04:41:20;;;;;;;3.53;0.70;;;;;;;-146.48;100.00;60459.00;5305610;28;20043;-71
2022/10/27 04:43:51;;;;;;;4.03;0.77;;;;;;;-146.48;100.00;60459.00;5306332;28;20602;-71
2022/10/27 04:46:22;;;;;;;5.10;0.80;;;;;;;-146.48;100.00;60459.00;5306588;28;20028;-70
2022/10/27 04:48:54;;;;;;;4.60;0.90;;;;;;;-146.48;100.00;60459.00;5305146;28;20032;-70
2022/10/27 04:51:25;;;;;;;5.43;0.77;;;;;;;-146.48;100.00;60459.00;5306181;28;20443;-71
2022/10/27 04:53:57;;;;;;;1.77;0.70;;;;;;;-146.48;100.00;60459.00;5306041;28;20020;-71
2022/10/27 04:56:28;;;;;;;6.38;0.70;;;;;;;-146.48;100.00;60459.00;5305041;28;20016;-71
2022/10/27 04:58:59;;;;;;;6.25;0.80;;;;;;;-146.48;100.00;60459.00;5306376;28;20028;-71
2022/10/27 05:01:31;;;;;;;4.43;0.90;;;;;;;-146.48;100.00;60459.00;5305705;28;20055;-71
2022/10/27 05:04:02;;;;;;;4.07;0.70;;;;;;;-146.48;100.00;60459.00;5305205;28;20027;-71
2022/10/27 05:06:33;;;;;;;2.72;0.77;;;;;;;-146.48;100.00;60459.00;5305256;28;20028;-71
2022/10/27 05:09:05;;;;;;;5.40;0.80;;;;;;;-146.48;100.00;60459.00;5306175;28;20024;-71
2022/10/27 05:11:36;;;;;;;7.57;1.02;;;;;;;-146.48;100.00;60459.00;5304757;28;20083;-71
2022/10/27 05:14:07;;;;;;;4.50;0.93;;;;;;;-146.48;100.00;60459.00;5306193;28;20114;-71
2022/10/27 05:16:38;;;;;;;5.28;1.65;;;;;;;-146.48;100.00;60459.00;5304513;28;20078;-71
2022/10/27 05:19:10;;;;;;;5.85;1.30;;;;;;;-146.48;100.00;60459.00;5305734;28;20383;-71
2022/10/27 05:21:41;;;;;;;6.95;1.40;;;;;;;-146.48;100.00;60459.00;5305245;28;20540;-71
2022/10/27 05:24:13;;;;;;;6.65;1.08;;;;;;;-146.48;100.00;60459.00;5305163;28;20051;-70
2022/10/27 05:26:45;;;;;;;7.75;1.10;;;;;;;-146.48;100.00;60459.00;5305185;28;20012;-70
2022/10/27 05:29:16;;;;;;;3.92;0.95;;;;;;;-146.48;100.00;60459.00;5305414;28;20044;-71
2022/10/27 05:31:47;;;;;;;3.70;0.73;;;;;;;-146.48;100.00;60459.00;5304494;28;20052;-71
2022/10/27 05:34:18;;;;;;;3.90;0.90;;;;;;;-146.48;100.00;60459.00;5305639;28;20016;-70
2022/10/27 05:36:50;;;;;;;2.70;0.80;;;;;;;-146.48;100.00;60459.00;5305003;28;20028;-70
2022/10/27 05:39:21;;;;;;;5.22;0.70;;;;;;;-146.48;100.00;60459.00;5304608;28;20024;-70
2022/10/27 05:41:52;;;;;;;5.78;0.70;;;;;;;-146.48;100.00;60459.00;5303956;28;20027;-71
2022/10/27 05:44:23;;;;;;;4.82;0.77;;;;;;;-146.48;100.00;60459.00;5304475;28;20057;-72
2022/10/27 05:46:55;;;;;;;3.15;0.88;;;;;;;-146.48;100.00;60459.00;5305018;28;20031;-71
2022/10/27 05:49:26;;;;;;;4.22;0.68;;;;;;;-146.48;100.00;60459.00;5304607;28;20581;-71
2022/10/27 05:51:57;;;;;;;7.60;1.10;;;;;;;-146.48;100.00;60459.00;5304337;28;20027;-71
2022/10/27 05:54:29;;;;;;;3.83;0.80;;;;;;;-146.48;100.00;60459.00;5304504;28;20481;-71
2022/10/27 05:57:00;;;;;;;4.40;0.77;;;;;;;-146.48;100.00;60459.00;5305215;28;20024;-71
2022/10/27 05:59:31;;;;;;;4.70;0.80;;;;;;;-146.48;100.00;60459.00;5303927;28;20020;-72
2022/10/27 06:02:03;;;;;;;3.17;0.82;;;;;;;-146.48;100.00;60459.00;5304993;28;20032;-71
2022/10/27 06:04:34;;;;;;;4.25;1.10;;;;;;;-146.48;100.00;60459.00;5304370;28;20050;-72
2022/10/27 06:07:05;;;;;;;2.85;0.73;;;;;;;-146.48;100.00;60459.00;5303979;28;20383;-71
2022/10/27 06:09:36;;;;;;;3.65;0.90;;;;;;;-146.48;100.00;60459.00;5304368;28;20110;-71
2022/10/27 06:12:08;;;;;;;3.75;0.90;;;;;;;-146.48;100.00;60459.00;5304737;28;20039;-71
2022/10/27 06:14:39;;;;;;;3.15;0.90;;;;;;;-146.48;100.00;60459.00;5303285;28;20032;-71
2022/10/27 06:17:10;;;;;;;3.40;0.88;;;;;;;-146.48;100.00;60459.00;5304638;28;20035;-71
2022/10/27 06:19:41;;;;;;;3.85;1.45;;;;;;;-146.48;100.00;60459.00;5303200;28;20112;-72
2022/10/27 06:22:13;;;;;;;3.22;0.90;;;;;;;-146.48;100.00;60459.00;5304526;28;20417;-71
2022/10/27 06:24:44;;;;;;;3.47;0.80;;;;;;;-146.48;100.00;60459.00;5303801;28;20028;-71
2022/10/27 06:27:15;;;;;;;2.95;0.90;;;;;;;-146.48;100.00;60459.00;5303468;28;20016;-71
2022/10/27 06:29:47;;;;;;;3.03;0.70;;;;;;;-146.48;100.00;60459.00;5303393;28;20052;-71
2022/10/27 06:32:18;;;;;;;2.90;0.80;;;;;;;-146.48;100.00;60459.00;5304353;28;20020;-70
2022/10/27 06:34:49;;;;;;;4.63;1.00;;;;;;;-146.48;100.00;60459.00;5302718;28;20111;-70
2022/10/27 06:37:20;;;;;;;2.28;0.70;;;;;;;-146.48;100.00;60459.00;5304023;28;20036;-71
2022/10/27 06:39:54;;;;;;;6.00;0.90;;;;;;;-146.48;100.00;60459.00;5303411;28;20028;-71
2022/10/27 06:42:25;;;;;;;5.03;0.70;;;;;;;-146.48;100.00;60459.00;5303069;28;20417;-72
2022/10/27 06:44:57;;;;;;;1.63;0.50;;;;;;;-146.48;100.00;60459.00;5303986;28;20039;-71
2022/10/27 06:47:28;;;;;;;3.10;0.80;;;;;;;-146.48;100.00;60459.00;5303565;28;20052;-71
2022/10/27 06:49:59;;;;;;;3.25;1.00;;;;;;;-146.48;100.00;60459.00;5303199;28;20024;-71
2022/10/27 06:52:35;;;;;;;2.88;0.70;;;;;;;-146.48;100.00;60459.00;5302479;28;20467;-70
2022/10/27 06:55:08;;;;;;;4.55;1.13;;;;;;;-146.48;100.00;60459.00;5303375;28;20024;-72
2022/10/27 06:57:40;;;;;;;3.85;0.68;;;;;;;-146.48;100.00;60459.00;5303512;28;20472;-72
2022/10/27 07:00:12;;;;;;;4.90;0.70;;;;;;;-146.48;100.00;60459.00;5304026;28;20383;-71
2022/10/27 07:02:43;;;;;;;5.88;0.70;;;;;;;-146.48;100.00;60459.00;5302336;28;20027;-71
2022/10/27 07:05:14;;;;;;;2.70;0.70;;;;;;;-146.48;100.00;60459.00;5303685;28;20102;-71
2022/10/27 07:07:47;;;;;;;3.63;1.00;;;;;;;-146.48;100.00;60459.00;5303135;28;20439;-71
2022/10/27 07:10:20;;;;;;;4.80;0.80;;;;;;;-146.48;100.00;60459.00;5302905;28;20028;-73
2022/10/27 07:12:53;;;;;;;2.92;0.85;;;;;;;-146.48;100.00;60459.00;5302795;28;20027;-73
2022/10/27 07:15:26;;;;;;;4.15;0.90;;;;;;;-146.48;100.00;60459.00;5303239;28;20085;-74
2022/10/27 07:18:04;;;;;;;3.03;1.05;;;;;;;-146.48;100.00;60459.00;5302761;28;20482;-73
2022/10/27 07:20:39;;;;;;;5.13;1.25;;;;;;;-146.48;100.00;60459.00;5302811;28;20020;-70
2022/10/27 07:23:11;;;;;;;3.67;1.20;;;;;;;-146.48;100.00;60459.00;5302425;28;20055;-73
2022/10/27 07:25:42;;;;;;;2.97;1.35;;;;;;;-146.48;100.00;60459.00;5302743;28;20509;-73
2022/10/27 07:28:16;;;;;;;2.92;0.90;;;;;;;-146.48;100.00;60459.00;5303048;28;20024;-74
2022/10/27 07:30:47;;;;;;;2.22;1.00;;;;;;;-146.48;100.00;60459.00;5302015;28;20065;-73
2022/10/27 07:33:19;;;;;;;2.35;0.70;;;;;;;-146.48;100.00;60459.00;5303281;28;20024;-73
2022/10/27 07:35:51;;;;;;;3.30;0.70;;;;;;;-146.48;100.00;60459.00;5302465;28;20488;-73
2022/10/27 07:38:23;;;;;;;3.53;0.70;;;;;;;-146.48;100.00;60459.00;5302253;28;20024;-74
2022/10/27 07:40:56;;;;;;;4.18;0.60;;;;;;;-146.48;100.00;60459.00;5303113;28;20090;-73
2022/10/27 07:43:27;;;;;;;2.05;0.47;;;;;;;-146.48;100.00;60459.00;5302721;28;20537;-73
2022/10/27 07:45:58;;;;;;;2.47;0.98;;;;;;;-146.48;100.00;60459.00;5302295;28;20032;-73
2022/10/27 07:48:30;;;;;;;3.50;0.70;;;;;;;-146.48;100.00;60459.00;5302187;28;20032;-73
2022/10/27 07:51:01;;;;;;;2.72;0.52;;;;;;;-146.48;100.00;60459.00;5301354;28;20028;-73
2022/10/27 07:53:32;;;;;;;3.22;0.70;;;;;;;-146.48;100.00;60459.00;5302431;28;20028;-73
2022/10/27 07:56:04;;;;;;;3.50;0.60;;;;;;;-146.48;100.00;60459.00;5303000;28;20407;-73
2022/10/27 07:58:35;;;;;;;5.30;0.70;;;;;;;-146.48;100.00;60459.00;5301391;28;20437;-73
2022/10/27 08:01:06;;;;;;;3.83;0.65;;;;;;;-146.48;100.00;60459.00;5302587;28;20074;-73
2022/10/27 08:03:38;;;;;;;2.38;0.55;;;;;;;-146.48;100.00;60459.00;5301660;28;20043;-74
2022/10/27 08:06:09;;;;;;;2.42;0.75;;;;;;;-146.48;100.00;60459.00;5302000;28;20035;-74
2022/10/27 08:08:40;;;;;;;5.13;0.60;;;;;;;-146.48;100.00;60459.00;5298203;28;20027;-74
2022/10/27 08:11:12;;;;;;;2.25;0.40;;;;;;;-146.48;100.00;60459.00;5299572;28;20048;-72
2022/10/27 08:13:43;;;;;;;3.17;0.40;;;;;;;-146.48;100.00;60459.00;5300914;28;20028;-71
2022/10/27 08:16:14;;;;;;;2.55;0.60;;;;;;;-146.48;100.00;60459.00;5302378;28;20116;-72
2022/10/27 08:18:45;;;;;;;2.92;0.40;;;;;;;-146.48;100.00;60459.00;5301391;28;20024;-70
2022/10/27 08:21:17;;;;;;;1.42;0.40;;;;;;;-146.48;100.00;60459.00;5301190;28;20030;-71
2022/10/27 08:23:48;;;;;;;3.40;0.40;;;;;;;-146.48;100.00;60459.00;5301313;28;20024;-70
2022/10/27 08:26:19;;;;;;;4.35;0.50;;;;;;;-146.48;100.00;60459.00;5301517;28;20024;-70
2022/10/27 08:28:50;;;;;;;2.97;0.40;;;;;;;-146.48;100.00;60459.00;5301432;28;20070;-70
2022/10/27 08:31:23;;;;;;;2.05;0.32;;;;;;;-146.48;100.00;60459.00;5301918;28;20024;-71
2022/10/27 08:33:54;;;;;;;2.05;0.38;;;;;;;-146.48;100.00;60459.00;5301053;28;20024;-71
2022/10/27 08:36:25;;;;;;;2.30;0.38;;;;;;;-146.48;100.00;60459.00;5301856;28;20494;-71
2022/10/27 08:38:57;;;;;;;3.03;0.35;;;;;;;-146.48;100.00;60459.00;5301596;28;20135;-71
2022/10/27 08:41:45;;;;;;;3.03;0.35;;;;;;;-146.48;100.00;60459.00;5300768;28;20158;-70
2022/10/27 08:44:38;;;;;;;1.40;0.30;;;;;;;-146.48;100.00;60459.00;5302344;28;20032;-71
2022/10/27 08:47:17;;;;;;;1.98;0.30;;;;;;;-146.48;100.00;60459.00;5302087;28;20031;-70
2022/10/27 08:50:12;;;;;;;4.20;0.30;;;;;;;-146.48;100.00;60459.00;5301800;28;20451;-71
2022/10/27 08:52:54;;;;;;;2.53;0.30;;;;;;;-146.48;100.00;60459.00;5301121;28;20513;-71
2022/10/27 08:55:29;;;;;;;3.05;0.45;;;;;;;-146.48;100.00;60459.00;5301054;28;20032;-71
2022/10/27 08:58:06;;;;;;;1.20;0.20;;;;;;;-146.48;100.00;60459.00;5302077;28;20078;-71
2022/10/27 09:00:56;;;;;;;2.25;0.22;;;;;;;-146.48;100.00;60459.00;5301529;28;20040;-72
2022/10/27 09:03:59;;;;;;;4.68;0.40;;;;;;;-146.48;100.00;60459.00;5300546;28;20036;-71
2022/10/27 09:06:52;;;;;;;2.30;0.28;;;;;;;-146.48;100.00;60459.00;5301088;28;20032;-71
2022/10/27 09:09:29;;;;;;;2.55;0.30;;;;;;;-146.48;100.00;60459.00;5257276;28;20105;-71
2022/10/27 09:12:25;;;;;;;2.65;0.30;;;;;;;-146.48;100.00;60459.00;5301593;28;20039;-71
2022/10/27 09:15:18;;;;;;;2.05;0.30;;;;;;;-146.48;100.00;60459.00;5301244;28;20024;-71
2022/10/27 09:17:58;;;;;;;3.97;0.30;;;;;;;-146.48;100.00;60459.00;5304824;28;20545;-71
2022/10/27 09:20:44;;;;;;;1.63;0.40;;;;;;;-146.48;100.00;60459.00;5304811;28;20028;-69
2022/10/27 09:23:16;;;;;;;3.50;0.30;;;;;;;-146.48;100.00;60459.00;5305020;28;20024;-70
2022/10/27 09:25:51;;;;;;;1.33;0.30;;;;;;;-146.48;100.00;60459.00;5305019;28;20077;-70
2022/10/27 09:28:50;;;;;;;1.60;0.22;;;;;;;-146.48;100.00;60459.00;5305272;28;20028;-70
2022/10/27 09:31:32;;;;;;;4.03;0.68;;;;;;;-146.48;100.00;60459.00;5304595;28;20060;-70
2022/10/27 09:34:29;;;;;;;4.10;0.43;;;;;;;-146.48;100.00;60459.00;5305530;28;20050;-70
2022/10/27 09:37:00;;;;;;;1.42;0.20;;;;;;;-146.48;100.00;60459.00;5297423;28;20044;-71
2022/10/27 09:39:32;;;;;;;3.15;0.30;;;;;;;-146.48;100.00;60459.00;5304175;28;20123;-70
2022/10/27 09:42:03;;;;;;;3.63;0.30;;;;;;;-146.48;100.00;60459.00;5305450;28;20032;-71
2022/10/27 09:44:35;;;;;;;1.70;0.20;;;;;;;-146.48;100.00;60459.00;5303989;28;20085;-71
2022/10/27 09:47:07;;;;;;;2.25;0.30;;;;;;;-146.48;100.00;60459.00;5305253;28;20097;-71
2022/10/27 09:49:43;;;;;;;2.10;0.30;;;;;;;-146.48;100.00;60459.00;5304021;28;20035;-71
2022/10/27 09:52:21;;;;;;;1.60;0.25;;;;;;;-146.48;100.00;60459.00;5304552;28;20501;-71
2022/10/27 09:54:54;;;;;;;0.52;0.20;;;;;;;-146.48;100.00;60459.00;5304023;28;20030;-71
2022/10/27 09:57:33;;;;;;;3.45;0.63;;;;;;;-146.48;100.00;60459.00;5304540;28;20027;-71
2022/10/27 10:00:07;;;;;;;1.63;0.25;;;;;;;-146.48;100.00;60459.00;5304279;28;20067;-71
2022/10/27 10:03:00;;;;;;;1.55;0.30;;;;;;;-146.48;100.00;60459.00;5304138;28;20356;-71
2022/10/27 10:05:35;;;;;;;2.00;0.30;;;;;;;-146.48;100.00;60459.00;5303634;28;20031;-71
2022/10/27 10:08:21;;;;;;;1.70;0.30;;;;;;;-146.48;100.00;60459.00;5304878;28;20567;-71
2022/10/27 10:10:56;;;;;;;4.35;0.28;;;;;;;-146.48;100.00;60459.00;5303987;28;20031;-71
2022/10/27 10:13:30;;;;;;;1.33;0.30;;;;;;;-146.48;100.00;60459.00;5303648;28;20059;-71
2022/10/27 10:16:14;;;;;;;1.95;0.30;;;;;;;-146.48;100.00;60459.00;5304698;28;20032;-71
2022/10/27 10:19:00;;;;;;;3.78;0.50;;;;;;;-146.48;100.00;60459.00;5303285;28;20093;-71
2022/10/27 10:21:53;;;;;;;3.30;0.30;;;;;;;-146.48;100.00;60459.00;5304075;28;20107;-71
2022/10/27 10:24:32;;;;;;;2.00;0.20;;;;;;;-146.48;100.00;60459.00;5304136;28;20027;-71
2022/10/27 10:27:05;;;;;;;2.10;0.30;;;;;;;-146.48;100.00;60459.00;5303477;28;20024;-71
2022/10/27 10:29:47;;;;;;;1.63;0.30;;;;;;;-146.48;100.00;60459.00;5303410;28;20547;-71
2022/10/27 10:32:23;;;;;;;3.10;0.30;;;;;;;-146.48;100.00;60459.00;5304286;28;20035;-73
2022/10/27 10:34:55;;;;;;;4.43;0.40;;;;;;;-146.48;100.00;60459.00;5303314;28;20027;-71
2022/10/27 10:37:30;;;;;;;1.67;0.30;;;;;;;-146.48;100.00;60459.00;5303749;28;20459;-71
2022/10/27 10:40:28;;;;;;;1.45;0.30;;;;;;;-146.48;100.00;60459.00;5303386;28;20036;-71
2022/10/27 10:43:17;;;;;;;0.85;0.20;;;;;;;-146.48;100.00;60459.00;5301436;28;20399;-71
2022/10/27 10:45:52;;;;;;;1.52;0.60;;;;;;;-146.48;100.00;60459.00;5303498;28;20072;-70
2022/10/27 10:48:31;;;;;;;0.80;0.20;;;;;;;-146.48;100.00;60459.00;5302701;28;20024;-71
2022/10/27 10:51:04;;;;;;;3.38;0.25;;;;;;;-146.48;100.00;60459.00;5304208;28;20035;-71
2022/10/27 10:53:59;;;;;;;1.58;0.25;;;;;;;-146.48;100.00;60459.00;5303267;28;20027;-71
2022/10/27 10:56:33;;;;;;;1.73;0.30;;;;;;;-146.48;100.00;60459.00;5302937;28;20501;-71
2022/10/27 10:59:14;;;;;;;2.25;0.30;;;;;;;-146.48;100.00;60459.00;5303974;28;20031;-72
2022/10/27 11:02:00;;;;;;;1.08;0.20;;;;;;;-146.48;100.00;60459.00;5302162;28;20187;-71
2022/10/27 11:04:40;;;;;;;3.95;0.40;;;;;;;-146.48;100.00;60459.00;5303314;28;20027;-72
2022/10/27 11:07:25;;;;;;;4.03;0.20;;;;;;;-146.48;100.00;60459.00;5303783;28;20054;-71
2022/10/27 11:10:05;;;;;;;2.17;0.30;;;;;;;-146.48;100.00;60459.00;5302695;28;20023;-71
2022/10/27 11:12:44;;;;;;;2.22;0.22;;;;;;;-146.48;100.00;60459.00;5303003;28;20418;-72
2022/10/27 11:15:38;;;;;;;1.23;0.20;;;;;;;-146.48;100.00;60459.00;5302598;28;20024;-72
2022/10/27 11:18:09;;;;;;;2.88;0.30;;;;;;;-146.48;100.00;60459.00;5303499;28;20055;-69
2022/10/27 11:20:44;;;;;;;2.42;0.30;;;;;;;-146.48;100.00;60459.00;5302562;28;20020;-68
2022/10/27 11:23:24;;;;;;;2.90;0.75;;;;;;;-146.48;100.00;60459.00;5302491;28;20565;-71
2022/10/27 11:25:57;;;;;;;3.92;0.30;;;;;;;-146.48;100.00;60459.00;5302606;28;20521;-70
2022/10/27 11:28:38;;;;;;;1.98;0.20;;;;;;;-146.48;100.00;60459.00;5302310;28;20107;-70
2022/10/27 11:31:28;;;;;;;3.08;0.40;;;;;;;-146.48;100.00;60459.00;5302506;28;20035;-70
2022/10/27 11:34:20;;;;;;;1.98;0.40;;;;;;;-146.48;100.00;60459.00;5302662;28;20027;-70
2022/10/27 11:37:10;;;;;;;2.78;0.30;;;;;;;-146.48;100.00;60459.00;5301664;28;20127;-70
2022/10/27 11:39:49;;;;;;;2.88;0.20;;;;;;;-146.48;100.00;60459.00;5302037;28;20425;-70
2022/10/27 11:42:37;;;;;;;;;;;;;;;-146.48;100.00;60459.00;5303386;28;20036;-70
2022/10/27 11:45:23;;;;;;;1.98;0.38;;;;;;;-146.48;100.00;60459.00;5302498;28;19916;-73